createdAt,value
2022-09-18T00:00:05.787Z,7.30
2022-09-18T00:03:04.348Z,7.00
2022-09-18T00:05:38.696Z,6.50
2022-09-18T00:08:11.531Z,6.90
2022-09-18T00:10:46.745Z,6.50
2022-09-18T00:13:18.948Z,6.30
2022-09-18T00:15:58.452Z,6.60
2022-09-18T00:18:30.803Z,6.00
2022-09-18T00:21:08.524Z,6.30
2022-09-18T00:23:41.676Z,6.50
2022-09-18T00:26:15.309Z,6.10
2022-09-18T00:28:47.411Z,6.00
2022-09-18T00:31:22.073Z,6.10
2022-09-18T00:33:54.307Z,6.00
2022-09-18T00:36:27.210Z,6.40
2022-09-18T00:39:00.974Z,6.20
2022-09-18T00:41:35.330Z,6.50
2022-09-18T00:44:39.011Z,6.50
2022-09-18T00:47:24.300Z,6.70
2022-09-18T00:50:03.427Z,6.50
2022-09-18T00:52:45.823Z,6.60
2022-09-18T00:55:22.551Z,6.60
2022-09-18T00:57:58.699Z,6.60
2022-09-18T01:00:32.272Z,6.40
2022-09-18T01:03:04.939Z,6.60
2022-09-18T01:05:53.004Z,7.00
2022-09-18T01:08:39.544Z,6.40
2022-09-18T01:11:28.995Z,6.40
2022-09-18T01:14:14.379Z,6.70
2022-09-18T01:16:54.266Z,6.50
2022-09-18T01:19:42.364Z,7.30
2022-09-18T01:22:32.344Z,7.70
2022-09-18T01:25:18.395Z,7.90
2022-09-18T01:28:02.400Z,8.50
2022-09-18T01:30:38.126Z,7.50
2022-09-18T01:33:19.452Z,7.40
2022-09-18T01:35:58.455Z,7.10
2022-09-18T01:38:34.746Z,7.00
2022-09-18T01:41:11.294Z,6.70
2022-09-18T01:43:45.635Z,7.30
2022-09-18T01:46:21.160Z,7.20
2022-09-18T01:48:59.636Z,6.80
2022-09-18T01:51:37.497Z,7.10
2022-09-18T01:54:15.730Z,6.80
2022-09-18T01:56:53.979Z,7.00
2022-09-18T01:59:31.137Z,6.80
2022-09-18T02:02:20.007Z,6.80
2022-09-18T02:04:59.895Z,6.90
2022-09-18T02:07:40.664Z,7.10
2022-09-18T02:10:12.981Z,6.80
2022-09-18T02:12:46.834Z,7.00
2022-09-18T02:15:19.770Z,7.20
2022-09-18T02:18:03.322Z,6.90
2022-09-18T02:20:46.179Z,6.90
2022-09-18T02:23:19.390Z,8.10
2022-09-18T02:25:57.130Z,8.60
2022-09-18T02:28:31.099Z,8.80
2022-09-18T02:31:03.584Z,8.40
2022-09-18T02:33:38.933Z,8.00
2022-09-18T02:36:25.976Z,8.00
2022-09-18T02:39:08.912Z,7.40
2022-09-18T02:41:50.642Z,8.20
2022-09-18T02:44:32.144Z,7.80
2022-09-18T02:47:15.108Z,7.70
2022-09-18T02:49:57.962Z,7.80
2022-09-18T02:52:34.907Z,7.30
2022-09-18T02:55:13.039Z,7.40
2022-09-18T02:57:50.641Z,7.30
2022-09-18T03:00:23.288Z,7.20
2022-09-18T03:03:00.299Z,7.90
2022-09-18T03:05:40.185Z,7.80
2022-09-18T03:08:12.288Z,7.90
2022-09-18T03:10:44.479Z,7.00
2022-09-18T03:13:17.072Z,7.50
2022-09-18T03:15:49.231Z,7.70
2022-09-18T03:18:22.065Z,7.50
2022-09-18T03:20:54.519Z,7.70
2022-09-18T03:23:27.412Z,7.30
2022-09-18T03:26:08.762Z,7.50
2022-09-18T03:28:41.092Z,7.30
2022-09-18T03:31:13.645Z,7.80
2022-09-18T03:33:45.885Z,7.70
2022-09-18T03:36:18.685Z,7.10
2022-09-18T03:38:51.151Z,7.20
2022-09-18T03:41:24.218Z,7.50
2022-09-18T03:43:56.591Z,7.00
2022-09-18T03:46:28.862Z,7.00
2022-09-18T03:49:03.931Z,7.50
2022-09-18T03:51:38.901Z,7.90
2022-09-18T03:54:14.669Z,7.70
2022-09-18T03:56:55.631Z,7.50
2022-09-18T03:59:46.373Z,6.20
2022-09-18T04:02:38.761Z,7.20
2022-09-18T04:05:43.462Z,6.70
2022-09-18T04:08:36.658Z,6.00
2022-09-18T04:11:24.635Z,7.10
2022-09-18T04:13:58.341Z,6.90
2022-09-18T04:16:30.436Z,6.10
2022-09-18T04:19:02.970Z,6.70
2022-09-18T04:21:35.071Z,6.40
2022-09-18T04:24:07.531Z,5.90
2022-09-18T04:26:41.394Z,5.80
2022-09-18T04:29:14.250Z,5.70
2022-09-18T04:31:46.372Z,6.00
2022-09-18T04:34:20.056Z,6.10
2022-09-18T04:36:53.379Z,6.30
2022-09-18T04:39:25.567Z,5.70
2022-09-18T04:41:57.581Z,6.20
2022-09-18T04:44:30.462Z,6.10
2022-09-18T04:47:03.183Z,6.60
2022-09-18T04:49:35.506Z,6.00
2022-09-18T04:52:07.589Z,5.80
2022-09-18T04:54:40.828Z,6.10
2022-09-18T04:57:13.441Z,6.00
2022-09-18T04:59:46.482Z,5.40
2022-09-18T05:02:19.310Z,6.10
2022-09-18T05:04:51.814Z,6.10
2022-09-18T05:07:31.723Z,6.60
2022-09-18T05:10:05.070Z,6.50
2022-09-18T05:12:40.762Z,6.30
2022-09-18T05:15:13.898Z,6.60
2022-09-18T05:17:46.267Z,6.80
2022-09-18T05:20:19.639Z,5.90
2022-09-18T05:22:52.574Z,6.40
2022-09-18T05:25:30.237Z,6.80
2022-09-18T05:28:03.926Z,6.20
2022-09-18T05:30:47.017Z,6.20
2022-09-18T05:33:19.578Z,6.00
2022-09-18T05:35:56.666Z,5.70
2022-09-18T05:38:29.374Z,5.20
2022-09-18T05:41:03.733Z,6.50
2022-09-18T05:43:36.116Z,5.90
2022-09-18T05:46:12.737Z,6.00
2022-09-18T05:48:51.308Z,5.80
2022-09-18T05:51:24.226Z,6.00
2022-09-18T05:53:56.611Z,5.70
2022-09-18T05:56:41.510Z,6.20
2022-09-18T05:59:15.017Z,6.10
2022-09-18T06:01:48.898Z,6.20
2022-09-18T06:04:24.755Z,6.20
2022-09-18T06:07:01.574Z,6.20
2022-09-18T06:09:33.967Z,6.30
2022-09-18T06:12:06.529Z,5.90
2022-09-18T06:14:46.369Z,5.40
2022-09-18T06:17:19.751Z,6.10
2022-09-18T06:19:52.782Z,5.30
2022-09-18T06:22:25.054Z,5.40
2022-09-18T06:24:57.160Z,4.30
2022-09-18T06:27:36.217Z,4.10
2022-09-18T06:30:10.442Z,3.70
2022-09-18T06:32:42.528Z,4.30
2022-09-18T06:35:14.809Z,4.10
2022-09-18T06:37:47.482Z,4.00
2022-09-18T06:40:40.576Z,4.00
2022-09-18T06:43:24.456Z,3.80
2022-09-18T06:46:14.973Z,3.50
2022-09-18T06:48:50.949Z,3.90
2022-09-18T06:51:23.134Z,4.10
2022-09-18T06:54:15.641Z,3.60
2022-09-18T06:56:49.871Z,3.50
2022-09-18T06:59:23.549Z,3.20
2022-09-18T07:01:56.548Z,3.20
2022-09-18T07:04:49.698Z,3.40
2022-09-18T07:07:22.713Z,3.40
2022-09-18T07:09:55.637Z,3.10
2022-09-18T07:12:58.487Z,3.00
2022-09-18T07:15:30.973Z,3.20
2022-09-18T07:18:05.106Z,3.10
2022-09-18T07:20:37.511Z,2.90
2022-09-18T07:23:09.941Z,2.90
2022-09-18T07:25:50.253Z,2.90
2022-09-18T07:28:22.825Z,3.30
2022-09-18T07:31:06.471Z,3.20
2022-09-18T07:36:10.446Z,3.00
2022-09-18T07:38:43.369Z,3.10
2022-09-18T07:41:16.530Z,3.30
2022-09-18T07:43:51.939Z,3.50
2022-09-18T07:46:24.370Z,3.30
2022-09-18T07:48:58.092Z,3.70
2022-09-18T07:51:32.810Z,3.70
2022-09-18T07:54:05.102Z,3.80
2022-09-18T07:56:51.073Z,3.70
2022-09-18T07:59:25.730Z,4.30
2022-09-18T08:02:02.251Z,4.00
2022-09-18T08:04:36.612Z,4.30
2022-09-18T08:07:28.860Z,4.10
2022-09-18T08:10:13.791Z,4.80
2022-09-18T08:13:05.266Z,5.00
2022-09-18T08:15:54.662Z,4.80
2022-09-18T08:18:45.642Z,4.90
2022-09-18T08:21:35.312Z,4.30
2022-09-18T08:24:13.062Z,4.40
2022-09-18T08:26:45.822Z,4.70
2022-09-18T08:29:20.013Z,3.60
2022-09-18T08:32:05.495Z,3.70
2022-09-18T08:34:42.175Z,3.40
2022-09-18T08:37:16.081Z,3.40
2022-09-18T08:40:11.048Z,3.60
2022-09-18T08:43:10.759Z,3.30
2022-09-18T08:45:56.083Z,3.20
2022-09-18T08:48:32.477Z,3.30
2022-09-18T08:51:14.139Z,3.40
2022-09-18T08:53:51.806Z,3.80
2022-09-18T08:56:44.134Z,3.40
2022-09-18T08:59:30.954Z,4.00
2022-09-18T09:02:18.515Z,4.00
2022-09-18T09:04:54.295Z,3.70
2022-09-18T09:07:46.201Z,3.30
2022-09-18T09:10:35.157Z,3.80
2022-09-18T09:13:26.293Z,4.20
2022-09-18T09:16:06.623Z,3.60
2022-09-18T09:18:49.615Z,3.60
2022-09-18T09:21:25.359Z,3.60
2022-09-18T09:24:17.312Z,3.40
2022-09-18T09:27:20.956Z,3.60
2022-09-18T09:30:14.685Z,3.40
2022-09-18T09:33:17.835Z,2.80
2022-09-18T09:36:12.844Z,3.30
2022-09-18T09:38:56.126Z,2.90
2022-09-18T09:41:35.316Z,2.90
2022-09-18T09:44:23.272Z,2.50
2022-09-18T09:47:02.441Z,2.70
2022-09-18T09:49:45.095Z,2.30
2022-09-18T09:52:23.191Z,2.20
2022-09-18T09:55:02.604Z,2.50
2022-09-18T09:57:41.811Z,2.00
2022-09-18T10:00:19.444Z,2.80
2022-09-18T10:03:11.156Z,2.30
2022-09-18T10:05:53.884Z,2.20
2022-09-18T10:08:33.337Z,2.50
2022-09-18T10:11:11.305Z,2.40
2022-09-18T10:13:50.269Z,2.30
2022-09-18T10:16:26.058Z,2.10
2022-09-18T10:19:00.938Z,1.90
2022-09-18T10:21:36.733Z,2.50
2022-09-18T10:26:52.845Z,2.60
2022-09-18T10:29:25.049Z,2.50
2022-09-18T10:32:01.430Z,2.50
2022-09-18T10:34:45.273Z,2.20
2022-09-18T10:37:38.017Z,2.40
2022-09-18T10:40:33.205Z,2.30
2022-09-18T10:43:06.622Z,2.80
2022-09-18T10:45:42.703Z,2.40
2022-09-18T10:48:27.492Z,2.40
2022-09-18T10:51:01.666Z,2.50
2022-09-18T10:54:06.792Z,2.60
2022-09-18T10:56:55.530Z,2.50
2022-09-18T10:59:38.446Z,2.70
2022-09-18T11:02:21.935Z,3.10
2022-09-18T11:04:54.781Z,2.50
2022-09-18T11:07:28.180Z,2.70
2022-09-18T11:10:10.049Z,2.60
2022-09-18T11:12:55.571Z,2.70
2022-09-18T11:15:33.986Z,2.30
2022-09-18T11:18:15.894Z,2.40
2022-09-18T11:20:52.101Z,2.70
2022-09-18T11:23:31.484Z,2.70
2022-09-18T11:26:20.508Z,2.60
2022-09-18T11:31:48.223Z,2.30
2022-09-18T11:34:28.994Z,2.80
2022-09-18T11:37:06.535Z,2.50
2022-09-18T11:39:42.838Z,2.70
2022-09-18T11:42:19.896Z,3.00
2022-09-18T11:44:52.793Z,2.40
2022-09-18T11:47:35.906Z,2.80
2022-09-18T11:50:15.314Z,2.70
2022-09-18T11:52:51.568Z,2.60
2022-09-18T11:55:32.389Z,2.30
2022-09-18T11:58:07.507Z,2.30
2022-09-18T12:00:44.770Z,2.40
2022-09-18T12:03:23.125Z,2.50
2022-09-18T12:05:59.876Z,2.50
2022-09-18T12:08:44.464Z,2.30
2022-09-18T12:11:26.330Z,2.30
2022-09-18T12:14:14.821Z,2.30
2022-09-18T12:17:00.804Z,2.00
2022-09-18T12:19:39.223Z,2.60
2022-09-18T12:22:18.594Z,2.00
2022-09-18T12:24:51.666Z,1.90
2022-09-18T12:27:39.927Z,2.20
2022-09-18T12:30:14.820Z,2.10
2022-09-18T12:33:03.545Z,2.20
2022-09-18T12:35:49.322Z,2.20
2022-09-18T12:38:36.149Z,2.00
2022-09-18T12:41:33.411Z,2.30
2022-09-18T12:44:33.518Z,2.20
2022-09-18T12:47:24.639Z,2.20
2022-09-18T12:50:22.296Z,1.70
2022-09-18T12:53:09.869Z,1.70
2022-09-18T12:56:02.488Z,1.70
2022-09-18T12:58:51.260Z,2.20
2022-09-18T13:01:33.433Z,2.00
2022-09-18T13:04:14.551Z,2.10
2022-09-18T13:06:51.075Z,2.10
2022-09-18T13:09:29.227Z,2.40
2022-09-18T13:12:04.419Z,2.20
2022-09-18T13:14:44.312Z,3.50
2022-09-18T13:17:22.525Z,2.40
2022-09-18T13:20:01.630Z,3.00
2022-09-18T13:22:38.125Z,2.70
2022-09-18T13:25:29.335Z,2.90
2022-09-18T13:28:04.885Z,3.10
2022-09-18T13:30:37.332Z,3.00
2022-09-18T13:33:25.853Z,2.90
2022-09-18T13:35:59.764Z,3.70
2022-09-18T13:38:35.031Z,3.10
2022-09-18T13:41:10.202Z,3.20
2022-09-18T13:43:45.765Z,3.50
2022-09-18T13:46:37.332Z,3.70
2022-09-18T13:49:29.994Z,3.80
2022-09-18T13:52:42.777Z,3.90
2022-09-18T13:55:51.136Z,4.00
2022-09-18T13:58:54.594Z,4.60
2022-09-18T14:01:57.412Z,4.00
2022-09-18T14:05:02.979Z,4.20
2022-09-18T14:07:55.871Z,4.60
2022-09-18T14:10:32.024Z,4.70
2022-09-18T14:13:52.009Z,4.80
2022-09-18T14:16:38.908Z,5.00
2022-09-18T14:19:38.026Z,6.00
2022-09-18T14:22:25.808Z,5.50
2022-09-18T14:25:00.748Z,5.20
2022-09-18T14:27:49.992Z,5.10
2022-09-18T14:30:25.411Z,5.30
2022-09-18T14:33:04.491Z,4.90
2022-09-18T14:35:46.924Z,5.30
2022-09-18T14:38:28.634Z,4.70
2022-09-18T14:41:19.117Z,5.50
2022-09-18T14:44:31.666Z,5.00
2022-09-18T14:47:03.351Z,5.40
2022-09-18T14:49:40.670Z,6.10
2022-09-18T14:52:23.763Z,5.70
2022-09-18T14:54:59.033Z,6.40
2022-09-18T14:57:37.258Z,6.50
2022-09-18T15:00:18.095Z,6.70
2022-09-18T15:02:56.519Z,6.40
2022-09-18T15:05:30.814Z,7.10
2022-09-18T15:08:08.132Z,7.30
2022-09-18T15:10:41.697Z,6.80
2022-09-18T15:13:16.473Z,7.10
2022-09-18T15:15:49.335Z,7.50
2022-09-18T15:18:23.779Z,7.00
2022-09-18T15:20:58.342Z,7.40
2022-09-18T15:23:33.822Z,6.60
2022-09-18T15:26:14.632Z,7.00
2022-09-18T15:28:50.203Z,6.70
2022-09-18T15:31:24.638Z,7.20
2022-09-18T15:34:01.211Z,7.10
2022-09-18T15:36:35.599Z,7.00
2022-09-18T15:39:15.873Z,6.90
2022-09-18T15:41:48.130Z,7.10
2022-09-18T15:47:50.657Z,7.30
2022-09-18T15:50:37.883Z,7.40
2022-09-18T15:53:24.694Z,7.60
2022-09-18T15:56:00.687Z,7.30
2022-09-18T15:58:40.801Z,7.20
2022-09-18T16:01:21.153Z,7.30
2022-09-18T16:04:06.690Z,7.90
2022-09-18T16:06:49.877Z,7.50
2022-09-18T16:09:36.544Z,7.10
2022-09-18T16:12:42.560Z,8.00
2022-09-18T16:15:21.136Z,6.90
2022-09-18T16:17:59.240Z,6.50
2022-09-18T16:20:35.331Z,6.70
2022-09-18T16:23:20.319Z,7.20
2022-09-18T16:26:07.128Z,7.20
2022-09-18T16:28:44.230Z,6.50
2022-09-18T16:31:18.154Z,6.70
2022-09-18T16:33:55.574Z,6.90
2022-09-18T16:36:31.659Z,6.40
2022-09-18T16:39:08.182Z,6.80
2022-09-18T16:41:41.048Z,6.50
2022-09-18T16:44:15.379Z,6.10
2022-09-18T16:46:51.062Z,6.30
2022-09-18T16:49:26.828Z,7.10
2022-09-18T16:52:00.488Z,6.60
2022-09-18T16:54:32.727Z,6.30
2022-09-18T16:57:11.555Z,6.40
2022-09-18T16:59:45.791Z,6.40
2022-09-18T17:02:25.382Z,6.10
2022-09-18T17:04:58.166Z,6.60
2022-09-18T17:07:30.866Z,6.40
2022-09-18T17:10:03.199Z,6.60
2022-09-18T17:12:35.450Z,6.80
2022-09-18T17:15:09.077Z,6.80
2022-09-18T17:17:41.143Z,6.80
2022-09-18T17:20:17.800Z,6.60
2022-09-18T17:25:22.265Z,5.90
2022-09-18T17:27:54.844Z,7.10
2022-09-18T17:30:26.898Z,6.50
2022-09-18T17:32:59.341Z,5.80
2022-09-18T17:35:31.422Z,5.40
2022-09-18T17:38:03.495Z,5.30
2022-09-18T17:40:35.720Z,5.20
2022-09-18T17:43:08.048Z,4.80
2022-09-18T17:45:40.128Z,4.50
2022-09-18T17:48:12.230Z,4.50
2022-09-18T17:50:44.854Z,4.70
2022-09-18T17:53:17.755Z,4.30
2022-09-18T17:55:51.952Z,4.50
2022-09-18T17:58:24.173Z,4.30
2022-09-18T18:00:56.735Z,4.00
2022-09-18T18:03:29.408Z,4.10
2022-09-18T18:06:03.035Z,4.20
2022-09-18T18:08:35.303Z,4.10
2022-09-18T18:11:09.963Z,4.40
2022-09-18T18:13:43.880Z,3.50
2022-09-18T18:16:21.529Z,2.70
2022-09-18T18:18:55.858Z,2.40
2022-09-18T18:21:29.036Z,2.10
2022-09-18T18:24:03.851Z,2.40
2022-09-18T18:26:36.408Z,2.10
2022-09-18T18:29:11.133Z,2.70
2022-09-18T18:31:44.352Z,4.10
2022-09-18T18:34:21.278Z,2.80
2022-09-18T18:36:53.347Z,3.00
2022-09-18T18:39:25.532Z,3.00
2022-09-18T18:41:58.030Z,3.30
2022-09-18T18:44:30.279Z,2.70
2022-09-18T18:47:02.473Z,3.40
2022-09-18T18:49:34.728Z,3.40
2022-09-18T18:52:07.543Z,3.80
2022-09-18T18:54:39.923Z,3.50
2022-09-18T18:57:12.187Z,3.90
2022-09-18T18:59:44.516Z,3.60
2022-09-18T19:02:17.373Z,4.10
2022-09-18T19:04:49.433Z,4.90
2022-09-18T19:07:21.569Z,3.90
2022-09-18T19:09:53.794Z,4.10
2022-09-18T19:12:26.724Z,4.90
2022-09-18T19:14:58.713Z,4.70
2022-09-18T19:17:30.748Z,4.90
2022-09-18T19:20:03.183Z,4.50
2022-09-18T19:22:35.252Z,4.40
2022-09-18T19:25:09.015Z,4.70
2022-09-18T19:27:42.346Z,5.40
2022-09-18T19:30:15.356Z,4.20
2022-09-18T19:32:47.374Z,3.90
2022-09-18T19:35:19.571Z,4.30
2022-09-18T19:37:51.596Z,3.50
2022-09-18T19:40:23.849Z,3.70
2022-09-18T19:42:59.407Z,3.70
2022-09-18T19:45:34.248Z,3.80
2022-09-18T19:48:17.261Z,3.50
2022-09-18T19:50:49.575Z,4.00
2022-09-18T19:53:22.362Z,3.60
2022-09-18T19:55:54.460Z,3.20
2022-09-18T19:58:27.377Z,3.10
2022-09-18T20:01:00.497Z,2.70
2022-09-18T20:03:32.860Z,2.40
2022-09-18T20:06:05.298Z,2.40
2022-09-18T20:08:37.356Z,2.00
2022-09-18T20:11:09.467Z,2.10
2022-09-18T20:13:42.278Z,2.10
2022-09-18T20:16:14.593Z,2.20
2022-09-18T20:18:47.707Z,2.00
2022-09-18T20:21:20.665Z,2.20
2022-09-18T20:23:56.551Z,2.10
2022-09-18T20:26:29.276Z,1.80
2022-09-18T20:29:01.449Z,2.30
2022-09-18T20:31:33.619Z,2.60
2022-09-18T20:34:06.036Z,2.50
2022-09-18T20:36:38.267Z,2.60
2022-09-18T20:39:10.670Z,2.90
2022-09-18T20:41:42.758Z,3.30
2022-09-18T20:44:15.588Z,3.20
2022-09-18T20:46:50.394Z,3.30
2022-09-18T20:49:23.164Z,2.80
2022-09-18T20:51:55.606Z,3.40
2022-09-18T20:54:27.947Z,3.60
2022-09-18T20:57:00.565Z,3.70
2022-09-18T20:59:32.736Z,3.70
2022-09-18T21:02:06.248Z,3.50
2022-09-18T21:04:39.197Z,4.10
2022-09-18T21:07:11.273Z,4.60
2022-09-18T21:09:43.320Z,4.40
2022-09-18T21:12:15.755Z,4.50
2022-09-18T21:14:48.198Z,4.90
2022-09-18T21:17:20.402Z,4.90
2022-09-18T21:19:52.427Z,4.60
2022-09-18T21:22:24.938Z,4.90
2022-09-18T21:24:56.968Z,5.40
2022-09-18T21:27:29.314Z,5.30
2022-09-18T21:30:01.351Z,5.30
2022-09-18T21:32:33.509Z,5.10
2022-09-18T21:35:06.061Z,5.60
2022-09-18T21:37:38.082Z,5.10
2022-09-18T21:40:12.883Z,5.70
2022-09-18T21:42:47.691Z,5.10
2022-09-18T21:45:20.789Z,5.30
2022-09-18T21:47:53.749Z,6.20
2022-09-18T21:50:25.998Z,5.40
2022-09-18T21:52:58.111Z,5.40
2022-09-18T21:55:37.587Z,5.30
2022-09-18T21:58:09.859Z,5.60
2022-09-18T22:00:41.718Z,5.90
2022-09-18T22:03:16.020Z,5.90
2022-09-18T22:05:47.916Z,5.50
2022-09-18T22:08:20.112Z,5.80
2022-09-18T22:10:51.932Z,5.40
2022-09-18T22:13:24.032Z,6.10
2022-09-18T22:15:57.188Z,6.40
2022-09-18T22:18:30.435Z,6.80
2022-09-18T22:21:02.242Z,6.50
2022-09-18T22:23:34.897Z,6.60
2022-09-18T22:26:07.067Z,6.70
2022-09-18T22:28:38.963Z,6.30
2022-09-18T22:31:10.923Z,7.20
2022-09-18T22:33:42.956Z,7.20
2022-09-18T22:36:15.122Z,8.40
2022-09-18T22:38:46.935Z,7.40
2022-09-18T22:41:18.908Z,8.10
2022-09-18T22:43:54.126Z,7.90
2022-09-18T22:46:27.244Z,7.70
2022-09-18T22:48:59.649Z,6.70
2022-09-18T22:51:31.703Z,7.20
2022-09-18T22:54:07.739Z,7.10
2022-09-18T22:56:44.575Z,6.70
2022-09-18T23:01:51.979Z,6.40
2022-09-18T23:04:28.135Z,6.80
2022-09-18T23:07:01.964Z,6.80
2022-09-18T23:09:34.320Z,6.70
2022-09-18T23:12:07.403Z,6.30
2022-09-18T23:14:39.450Z,5.80
2022-09-18T23:17:11.811Z,5.20
2022-09-18T23:19:43.805Z,5.30
2022-09-18T23:22:16.807Z,4.90
2022-09-18T23:24:50.420Z,5.00
2022-09-18T23:27:22.477Z,5.40
2022-09-18T23:29:54.777Z,5.10
2022-09-18T23:32:26.967Z,5.00
2022-09-18T23:34:59.065Z,4.70
2022-09-18T23:37:31.291Z,5.50
2022-09-18T23:40:03.688Z,5.10
2022-09-18T23:42:36.178Z,4.70
2022-09-18T23:45:12.587Z,4.70
2022-09-18T23:47:44.781Z,4.10
2022-09-18T23:50:17.028Z,4.80
2022-09-18T23:52:49.073Z,4.30
2022-09-18T23:55:21.314Z,3.60
2022-09-18T23:57:53.349Z,4.30
